createdAt,value
2022-12-03T00:00:46.006Z,99816.50
2022-12-03T00:03:12.769Z,99820.13
2022-12-03T00:05:41.934Z,99820.41
2022-12-03T00:08:14.875Z,99814.41
2022-12-03T00:10:41.565Z,99809.28
2022-12-03T00:13:08.174Z,99807.25
2022-12-03T00:15:34.863Z,99818.09
2022-12-03T00:18:01.542Z,99815.53
2022-12-03T00:20:28.101Z,99817.66
2022-12-03T00:22:54.774Z,99815.66
2022-12-03T00:25:21.355Z,99811.16
2022-12-03T00:27:47.975Z,99812.13
2022-12-03T00:30:14.974Z,99818.09
2022-12-03T00:32:41.568Z,99819.44
2022-12-03T00:35:08.802Z,99822.00
2022-12-03T00:37:35.428Z,99823.50
2022-12-03T00:40:03.695Z,99825.31
2022-12-03T00:42:30.318Z,99832.94
2022-12-03T00:44:56.961Z,99843.63
2022-12-03T00:47:23.566Z,99833.84
2022-12-03T00:49:50.166Z,99830.19
2022-12-03T00:52:16.753Z,99834.63
2022-12-03T00:54:43.350Z,99825.31
2022-12-03T00:57:09.935Z,99832.00
2022-12-03T00:59:36.498Z,99833.59
2022-12-03T01:02:03.164Z,99832.44
2022-12-03T01:04:30.137Z,99833.44
2022-12-03T01:06:56.744Z,99837.19
2022-12-03T01:09:23.314Z,99835.38
2022-12-03T01:11:49.879Z,99830.19
2022-12-03T01:14:19.399Z,99828.38
2022-12-03T01:16:46.998Z,99837.28
2022-12-03T01:19:16.032Z,99848.66
2022-12-03T01:21:44.534Z,99843.94
2022-12-03T01:24:11.716Z,99839.38
2022-12-03T01:26:38.969Z,99833.84
2022-12-03T01:29:05.948Z,99825.31
2022-12-03T01:31:51.281Z,99820.28
2022-12-03T01:34:18.014Z,99832.16
2022-12-03T01:36:44.706Z,99832.44
2022-12-03T01:39:11.382Z,99835.34
2022-12-03T01:41:38.595Z,99825.09
2022-12-03T01:44:22.844Z,99833.44
2022-12-03T01:46:50.458Z,99834.63
2022-12-03T01:49:20.612Z,99848.66
2022-12-03T01:51:48.803Z,99838.78
2022-12-03T01:54:20.330Z,99838.88
2022-12-03T01:56:47.477Z,99837.91
2022-12-03T01:59:16.893Z,99835.34
2022-12-03T02:01:43.677Z,99831.56
2022-12-03T02:04:13.607Z,99826.97
2022-12-03T02:06:41.150Z,99827.50
2022-12-03T02:09:10.647Z,99827.94
2022-12-03T02:11:43.727Z,99821.94
2022-12-03T02:14:14.564Z,99839.25
2022-12-03T02:16:42.129Z,99832.19
2022-12-03T02:19:17.372Z,99842.13
2022-12-03T02:21:55.881Z,99840.16
2022-12-03T02:24:22.470Z,99842.06
2022-12-03T02:26:49.785Z,99836.16
2022-12-03T02:29:16.464Z,99843.72
2022-12-03T02:31:43.675Z,99833.63
2022-12-03T02:34:11.171Z,99828.69
2022-12-03T02:36:38.232Z,99836.38
2022-12-03T02:39:05.331Z,99841.00
2022-12-03T02:41:50.792Z,99832.63
2022-12-03T02:44:17.407Z,99832.25
2022-12-03T02:46:44.105Z,99829.88
2022-12-03T02:49:10.986Z,99829.22
2022-12-03T02:51:37.707Z,99829.50
2022-12-03T02:54:04.619Z,99839.47
2022-12-03T02:56:31.810Z,99834.34
2022-12-03T02:59:02.223Z,99843.06
2022-12-03T03:01:29.031Z,99834.72
2022-12-03T03:03:56.131Z,99837.34
2022-12-03T03:06:22.985Z,99825.31
2022-12-03T03:08:49.624Z,99820.41
2022-12-03T03:11:16.319Z,99821.38
2022-12-03T03:13:43.106Z,99825.22
2022-12-03T03:16:09.961Z,99819.00
2022-12-03T03:18:37.083Z,99820.97
2022-12-03T03:21:04.318Z,99822.31
2022-12-03T03:23:31.386Z,99818.19
2022-12-03T03:26:07.248Z,99814.56
2022-12-03T03:28:46.145Z,99811.72
2022-12-03T03:31:14.545Z,99803.69
2022-12-03T03:33:42.183Z,99804.53
2022-12-03T03:36:09.380Z,99806.09
2022-12-03T03:38:36.750Z,99822.63
2022-12-03T03:41:06.221Z,99822.03
2022-12-03T03:43:34.872Z,99814.94
2022-12-03T03:46:03.685Z,99815.91
2022-12-03T03:48:30.531Z,99819.56
2022-12-03T03:50:57.257Z,99815.97
2022-12-03T03:53:24.199Z,99830.31
2022-12-03T03:55:51.299Z,99818.88
2022-12-03T03:58:18.023Z,99820.31
2022-12-03T04:00:45.493Z,99818.22
2022-12-03T04:03:13.011Z,99814.63
2022-12-03T04:05:39.727Z,99810.97
2022-12-03T04:08:06.622Z,99819.09
2022-12-03T04:10:53.907Z,99816.28
2022-12-03T04:13:23.281Z,99821.56
2022-12-03T04:15:49.963Z,99828.50
2022-12-03T04:18:34.996Z,99825.59
2022-12-03T04:21:24.685Z,99824.28
2022-12-03T04:23:51.331Z,99828.03
2022-12-03T04:26:36.861Z,99827.19
2022-12-03T04:29:03.840Z,99815.78
2022-12-03T04:31:49.232Z,99812.13
2022-12-03T04:34:34.799Z,99813.59
2022-12-03T04:37:02.945Z,99815.88
2022-12-03T04:39:34.925Z,99807.94
2022-12-03T04:42:03.457Z,99805.78
2022-12-03T04:44:34.236Z,99802.41
2022-12-03T04:47:02.713Z,99805.41
2022-12-03T04:49:31.191Z,99805.78
2022-12-03T04:51:58.713Z,99805.59
2022-12-03T04:54:25.858Z,99803.31
2022-12-03T04:56:52.553Z,99796.25
2022-12-03T04:59:19.262Z,99796.47
2022-12-03T05:01:46.030Z,99802.81
2022-12-03T05:04:13.600Z,99813.41
2022-12-03T05:06:40.647Z,99818.41
2022-12-03T05:09:07.351Z,99817.25
2022-12-03T05:11:34.195Z,99817.22
2022-12-03T05:14:00.956Z,99820.69
2022-12-03T05:16:28.735Z,99817.56
2022-12-03T05:18:55.413Z,99824.56
2022-12-03T05:21:22.095Z,99823.38
2022-12-03T05:23:51.523Z,99819.53
2022-12-03T05:26:18.171Z,99816.84
2022-12-03T05:28:45.203Z,99817.41
2022-12-03T05:31:12.070Z,99818.63
2022-12-03T05:33:43.911Z,99818.72
2022-12-03T05:36:10.950Z,99827.03
2022-12-03T05:38:37.766Z,99826.00
2022-12-03T05:41:24.844Z,99823.19
2022-12-03T05:43:51.713Z,99825.16
2022-12-03T05:46:18.671Z,99828.34
2022-12-03T05:48:45.793Z,99829.53
2022-12-03T05:51:12.787Z,99823.53
2022-12-03T05:53:42.048Z,99821.47
2022-12-03T05:56:08.938Z,99816.38
2022-12-03T05:58:35.731Z,99832.00
2022-12-03T06:01:02.507Z,99829.66
2022-12-03T06:03:29.387Z,99820.13
2022-12-03T06:05:56.315Z,99824.84
2022-12-03T06:08:23.131Z,99827.25
2022-12-03T06:10:49.842Z,99819.38
2022-12-03T06:13:16.588Z,99819.53
2022-12-03T06:15:44.117Z,99817.69
2022-12-03T06:18:11.243Z,99813.53
2022-12-03T06:20:37.951Z,99816.22
2022-12-03T06:23:05.747Z,99814.72
2022-12-03T06:25:32.677Z,99813.84
2022-12-03T06:27:59.340Z,99820.88
2022-12-03T06:30:25.983Z,99817.25
2022-12-03T06:32:52.791Z,99816.91
2022-12-03T06:35:19.472Z,99822.25
2022-12-03T06:37:48.877Z,99821.75
2022-12-03T06:40:16.857Z,99831.13
2022-12-03T06:42:43.818Z,99833.81
2022-12-03T06:45:11.624Z,99826.19
2022-12-03T06:47:38.384Z,99835.47
2022-12-03T06:50:06.921Z,99827.56
2022-12-03T06:52:33.667Z,99828.84
2022-12-03T06:55:00.888Z,99831.28
2022-12-03T06:57:27.787Z,99827.81
2022-12-03T06:59:54.664Z,99838.75
2022-12-03T07:02:21.817Z,99843.53
2022-12-03T07:04:48.684Z,99841.13
2022-12-03T07:07:15.756Z,99841.81
2022-12-03T07:09:43.006Z,99836.53
2022-12-03T07:12:10.128Z,99831.03
2022-12-03T07:14:37.815Z,99835.25
2022-12-03T07:17:05.446Z,99834.75
2022-12-03T07:19:33.652Z,99840.69
2022-12-03T07:22:02.581Z,99843.03
2022-12-03T07:24:37.499Z,99846.97
2022-12-03T07:27:05.388Z,99841.69
2022-12-03T07:29:37.475Z,99846.50
2022-12-03T07:32:08.721Z,99850.47
2022-12-03T07:34:37.582Z,99845.97
2022-12-03T07:37:06.776Z,99850.13
2022-12-03T07:39:54.712Z,99857.72
2022-12-03T08:49:34.345Z,99867.41
2022-12-03T08:52:02.116Z,99875.66
2022-12-03T08:54:28.877Z,99864.06
2022-12-03T08:56:55.746Z,99856.94
2022-12-03T08:59:29.332Z,99853.97
2022-12-03T09:01:57.042Z,99867.22
2022-12-03T09:04:37.347Z,99866.19
2022-12-03T09:07:04.910Z,99862.38
2022-12-03T09:09:31.858Z,99865.34
2022-12-03T09:11:59.276Z,99867.00
2022-12-03T09:14:26.274Z,99858.34
2022-12-03T09:16:56.510Z,99864.44
2022-12-03T09:19:27.434Z,99863.28
2022-12-03T09:21:57.887Z,99857.84
2022-12-03T09:24:25.685Z,99859.63
2022-12-03T09:26:52.399Z,99856.28
2022-12-03T09:29:19.102Z,99863.72
2022-12-03T09:31:46.061Z,99865.50
2022-12-03T09:34:12.838Z,99856.06
2022-12-03T09:36:39.608Z,99866.94
2022-12-03T09:39:06.618Z,99857.78
2022-12-03T09:41:33.746Z,99855.28
2022-12-03T09:44:04.335Z,99864.78
2022-12-03T09:46:32.119Z,99854.34
2022-12-03T09:48:59.035Z,99848.84
2022-12-03T09:51:31.750Z,99844.38
2022-12-03T09:54:01.812Z,99851.22
2022-12-03T09:56:28.637Z,99843.56
2022-12-03T09:58:55.859Z,99849.16
2022-12-03T10:01:24.971Z,99848.75
2022-12-03T10:03:53.900Z,99839.78
2022-12-03T10:06:22.898Z,99840.00
2022-12-03T10:08:52.470Z,99836.88
2022-12-03T10:11:20.378Z,99835.44
2022-12-03T10:13:47.457Z,99829.19
2022-12-03T10:16:17.488Z,99829.81
2022-12-03T10:18:55.431Z,99827.97
2022-12-03T10:21:40.232Z,99825.50
2022-12-03T10:24:25.816Z,99824.50
2022-12-03T10:26:55.209Z,99825.56
2022-12-03T10:29:28.353Z,99829.59
2022-12-03T10:32:10.047Z,99821.09
2022-12-03T10:34:39.016Z,99810.88
2022-12-03T10:37:11.920Z,99797.84
2022-12-03T10:39:56.921Z,99797.50
2022-12-03T10:42:25.240Z,99798.13
2022-12-03T10:45:21.011Z,99799.63
2022-12-03T10:48:19.773Z,99795.97
2022-12-03T10:50:51.553Z,99794.69
2022-12-03T10:53:19.988Z,99802.72
2022-12-03T10:55:47.731Z,99799.16
2022-12-03T10:58:22.687Z,99794.81
2022-12-03T11:00:50.816Z,99790.25
2022-12-03T11:03:28.106Z,99791.63
2022-12-03T11:05:56.283Z,99786.06
2022-12-03T11:08:27.617Z,99781.75
2022-12-03T11:10:58.178Z,99788.91
2022-12-03T11:13:34.183Z,99776.78
2022-12-03T11:16:02.776Z,99778.19
2022-12-03T11:18:38.574Z,99773.25
2022-12-03T11:21:11.169Z,99778.19
2022-12-03T11:23:47.100Z,99779.44
2022-12-03T11:26:29.379Z,99773.63
2022-12-03T11:28:57.158Z,99777.34
2022-12-03T11:31:41.866Z,99790.81
2022-12-03T11:34:22.645Z,99784.94
2022-12-03T11:37:14.823Z,99782.34
2022-12-03T11:40:16.781Z,99775.81
2022-12-03T11:43:13.326Z,99774.34
2022-12-03T11:45:40.361Z,99765.66
2022-12-03T11:48:13.059Z,99774.16
2022-12-03T11:50:57.719Z,99759.91
2022-12-03T11:53:26.659Z,99769.78
2022-12-03T11:56:06.504Z,99768.66
2022-12-03T11:58:34.216Z,99766.50
2022-12-03T12:01:03.377Z,99774.03
2022-12-03T12:03:41.669Z,99762.19
2022-12-03T12:06:16.741Z,99766.13
2022-12-03T12:08:49.517Z,99760.34
2022-12-03T12:11:43.734Z,99765.66
2022-12-03T12:14:12.600Z,99769.13
2022-12-03T12:16:52.373Z,99768.72
2022-12-03T12:19:35.671Z,99765.06
2022-12-03T12:22:25.256Z,99774.03
2022-12-03T12:24:54.192Z,99771.06
2022-12-03T12:27:56.263Z,99768.78
2022-12-03T12:30:24.384Z,99767.44
2022-12-03T12:32:56.124Z,99761.66
2022-12-03T12:35:29.469Z,99754.94
2022-12-03T12:38:11.798Z,99756.16
2022-12-03T12:40:40.967Z,99747.09
2022-12-03T12:43:20.335Z,99759.16
2022-12-03T12:45:51.619Z,99753.50
2022-12-03T12:48:27.680Z,99748.97
2022-12-03T12:51:09.410Z,99747.06
2022-12-03T12:53:37.702Z,99748.22
2022-12-03T12:56:14.300Z,99749.44
2022-12-03T12:58:42.261Z,99742.72
2022-12-03T13:01:36.705Z,99736.69
2022-12-03T13:04:17.434Z,99752.28
2022-12-03T13:07:13.379Z,99729.28
2022-12-03T13:18:34.130Z,99731.97
2022-12-03T13:21:25.092Z,99727.88
2022-12-03T13:24:00.242Z,99736.06
2022-12-03T13:26:39.543Z,99734.47
2022-12-03T13:29:16.563Z,99738.13
2022-12-03T13:31:56.143Z,99742.47
2022-12-03T13:34:25.941Z,99737.34
2022-12-03T13:36:57.941Z,99743.31
2022-12-03T13:39:37.418Z,99734.91
2022-12-03T13:42:38.194Z,99744.22
2022-12-03T13:45:40.466Z,99749.22
2022-12-03T13:48:25.319Z,99749.25
2022-12-03T13:50:53.476Z,99743.44
2022-12-03T13:53:42.468Z,99742.44
2022-12-03T13:56:31.659Z,99752.91
2022-12-03T13:59:00.423Z,99758.19
2022-12-03T14:01:28.257Z,99759.50
2022-12-03T14:03:55.789Z,99759.16
2022-12-03T14:06:22.586Z,99760.03
2022-12-03T14:08:49.848Z,99765.69
2022-12-03T14:11:35.262Z,99768.69
2022-12-03T14:14:02.076Z,99763.56
2022-12-03T14:16:28.902Z,99774.50
2022-12-03T14:18:55.595Z,99764.88
2022-12-03T14:21:22.206Z,99774.31
2022-12-03T14:23:52.185Z,99770.88
2022-12-03T14:26:18.847Z,99771.84
2022-12-03T14:28:45.505Z,99775.19
2022-12-03T14:31:12.153Z,99768.06
2022-12-03T14:33:40.230Z,99768.38
2022-12-03T14:36:09.059Z,99772.38
2022-12-03T14:38:35.755Z,99768.56
2022-12-03T14:41:02.735Z,99773.03
2022-12-03T14:43:29.879Z,99776.53
2022-12-03T14:45:57.293Z,99775.34
2022-12-03T14:48:24.588Z,99777.50
2022-12-03T14:50:51.230Z,99779.31
2022-12-03T14:53:24.086Z,99778.66
2022-12-03T14:55:55.864Z,99773.41
2022-12-03T14:58:22.513Z,99783.78
2022-12-03T15:00:49.192Z,99783.47
2022-12-03T15:03:17.320Z,99773.69
2022-12-03T15:05:44.373Z,99782.97
2022-12-03T15:08:11.145Z,99793.25
2022-12-03T15:10:38.337Z,99785.47
2022-12-03T15:13:04.936Z,99793.25
2022-12-03T15:15:32.326Z,99783.81
2022-12-03T15:18:00.316Z,99779.88
2022-12-03T15:20:27.571Z,99781.19
2022-12-03T15:22:54.510Z,99773.34
2022-12-03T15:25:25.603Z,99773.22
2022-12-03T15:27:52.472Z,99783.31
2022-12-03T15:30:20.962Z,99783.34
2022-12-03T15:32:47.792Z,99778.03
2022-12-03T15:35:18.997Z,99777.66
2022-12-03T15:37:46.035Z,99770.72
2022-12-03T15:40:14.875Z,99775.84
2022-12-03T15:42:41.483Z,99772.38
2022-12-03T15:45:14.804Z,99758.81
2022-12-03T15:47:42.333Z,99776.53
2022-12-03T15:50:09.822Z,99780.66
2022-12-03T15:52:38.865Z,99779.47
2022-12-03T15:55:05.759Z,99773.56
2022-12-03T15:57:32.462Z,99773.69
2022-12-03T15:59:59.365Z,99778.16
2022-12-03T16:02:27.055Z,99775.50
